Landels-Hill Big Creek Reserve Entrance, California Weather observations

Data are for 10 minute period ending at time listed.
 Day   Time   Solar   Ave.   Ave.  Ave.  Vector  Max.   Baro.   Total    
  of    of     Rad.   Air    Rel.  Wind   Wind   Wind  Press.  Precip.   
Year   Day            Temp.  Hum.  Speed  Dir.   Gust                    
2016   (PST)  Kw/m2    F      %     mph   deg.    mph    mb.     in.     
-------------------------------------------------------------------------
 206    0:50   0.01   52.1    90    0.4    17     1.8   1007.0    0.00 
 206    1:00   0.01   52.0    90    1.0     9     2.6   1007.0    0.00 
 206    1:10   0.01   51.9    90    1.3    20     2.7   1006.9    0.00 
 206    1:20   0.01   51.9    90    0.9    32     2.4   1006.9    0.00 
 206    1:30   0.01   51.7    90    1.6    28     3.1   1006.8    0.00 
 206    1:40   0.01   51.7    91    1.7    13     3.4   1006.6    0.00 
 206    1:50   0.01   51.6    91    1.6    10     3.7   1006.5    0.00 
 206    2:00   0.01   51.6    91    1.0     8     3.5   1006.5    0.00 
 206    2:10   0.01   51.4    91    1.7     9     3.6   1006.4    0.00 
 206    2:20   0.01   51.4    91    3.3    10     5.6   1006.4    0.00 
 206    2:30   0.01   51.5    91    2.5    18     6.3   1006.3    0.00 
 206    2:40   0.01   51.5    91    0.9    38     4.1   1006.3    0.00 
 206    2:50   0.01   51.4    91    0.4     7     2.1   1006.3    0.00 
 206    3:00   0.01   51.2    91    1.8    12     4.6   1006.2    0.00 
 206    3:10   0.01   51.4    91    2.4    46     5.5   1006.1    0.00 
 206    3:20   0.01   51.9    91    2.0    44     5.8   1006.1    0.00 
 206    3:30   0.01   52.2    90    1.3    37     2.7   1006.2    0.00 
 206    3:40   0.01   51.7    90    1.5     6     2.9   1006.3    0.00 
 206    3:50   0.01   51.3    90    1.2    38     2.3   1006.3    0.00 
 206    4:00   0.01   51.4    90    0.8    74     3.4   1006.4    0.00 
 206    4:10   0.01   51.1    90    0.9    32     2.6   1006.6    0.00 
 206    4:20   0.01   51.1    91    0.4    19     1.9   1006.6    0.00 
 206    4:30   0.01   51.2    91    0.3   357     1.4   1006.8    0.00 
 206    4:40   0.01   50.6    91    0.4     2     1.6   1006.9    0.00 
 206    4:50   0.01   50.7    92    0.4    13     1.9   1006.9    0.00 
 206    5:00   0.01   51.2    92    0.5   357     2.0   1006.9    0.00 
 206    5:10   0.01   51.7    92    1.3   352     2.7   1006.9    0.00 
 206    5:20   0.01   51.9    92    1.1     1     2.3   1007.0    0.00 
 206    5:30   0.01   51.2    92    1.1    27     3.0   1007.0    0.00 
 206    5:40   0.01   51.4    92    1.1   120     2.4   1007.1    0.00 
 206    5:50   0.03   51.3    92    0.5    50     1.8   1007.3    0.00 
 206    6:00   0.03   51.1    92    1.1     6     3.6   1007.4    0.00 
 206    6:10   0.03   51.0    92    0.7    24     2.6   1007.4    0.00 
 206    6:20   0.04   51.0    92    0.5     4     1.7   1007.5    0.00 
 206    6:30   0.04   51.1    92    1.7     1     3.1   1007.6    0.00 
 206    6:40   0.05   51.5    92    0.6    27     2.0   1007.7    0.00 
 206    6:50   0.05   51.8    92    1.3    76     7.4   1007.7    0.00 
 206    7:00   0.06   52.6    93    3.5   165     7.7   1007.9    0.00 
 206    7:10   0.07   53.1    92    1.9   166     5.0   1008.1    0.00 
 206    7:20   0.07   53.3    92    1.3   215     4.3   1008.2    0.00 
 206    7:30   0.09   53.7    92    0.6   119     2.8   1008.2    0.00 
 206    7:40   0.10   54.0    91    2.1   167     5.1   1008.3    0.00 
 206    7:50   0.10   54.5    90    1.5   182     5.0   1008.3    0.00 
 206    8:00   0.11   54.6    89    1.8   194     4.8   1008.4    0.00 
 206    8:10   0.12   54.7    88    1.5   223     4.2   1008.4    0.00 
 206    8:20   0.14   54.9    88    1.2   212     4.2   1008.5    0.00 
 206    8:30   0.15   55.2    87    1.2   187     3.7   1008.5    0.00 
 206    8:40   0.16   55.4    87    1.1   219     3.3   1008.5    0.00 
 206    8:50   0.16   55.5    86    0.8   258     2.7   1008.5    0.00 
 206    9:00   0.18   56.1    86    1.0   217     3.3   1008.5    0.00 
 206    9:10   0.21   55.8    85    1.7   169     4.2   1008.6    0.00 
 206    9:20   0.42   57.0    84    1.2   190     2.4   1008.8    0.00 
 206    9:30   0.50   59.2    77    1.0   208     2.3   1008.8    0.00 
 206    9:40   0.57   60.3    73    1.7   204     3.4   1008.8    0.00 
 206    9:50   0.58   60.5    73    1.9   193     4.1   1009.0    0.00 
 206   10:00   0.61   60.9    72    2.0   217     4.8   1009.2    0.00 
 206   10:10   0.64   60.6    73    1.8   196     3.7   1009.4    0.00 
 206   10:20   0.67   60.6    73    2.0   190     5.1   1009.6    0.00 
 206   10:30   0.69   61.3    71    2.3   191     5.0   1009.6    0.00 
 206   10:40   0.72   61.3    71    2.3   196     5.6   1009.7    0.00 
 206   10:50   0.74   61.8    70    2.3   174     5.0   1009.7    0.00 
 206   11:00   0.74   61.8    70    3.0   198     6.3   1009.8    0.00 
 206   11:10   0.78   62.2    69    2.5   197     6.5   1009.8    0.00 
 206   11:20   0.73   60.7    72    3.1   173     8.6   1010.0    0.00 
 206   11:30   0.55   57.1    80    3.6   150     7.1   1010.1    0.00 
 206   11:40   0.38   55.5    84    2.7   192     5.4   1010.0    0.00 
 206   11:50   0.41   54.9    87    2.1   200     3.7   1009.9    0.00 
 206   12:00   0.54   55.5    86    2.1   206     4.3   1009.9    0.00 
 206   12:10   0.69   55.9    84    2.3   211     4.5   1010.0    0.00 
 206   12:20   0.85   58.3    79    1.6   227     4.2   1010.0    0.00 
 206   12:30   0.86   58.6    77    2.1   216     4.4   1010.1    0.00 
 206   12:40   0.86   57.9    79    2.5   209     4.0   1009.9    0.00 
 206   12:50   0.84   57.7    79    2.7   203     4.6   1009.9    0.00 
 206   13:00   0.83   57.3    80    3.2   203     5.0   1009.9    0.00 
 206   13:10   0.82   57.2    81    3.1   209     5.0   1009.9    0.00 
 206   13:20   0.81   58.7    77    3.1   206     5.0   1009.9    0.00 
 206   13:30   0.81   59.5    76    2.4   219     4.8   1010.0    0.00 
 206   13:40   0.82   60.9    73    2.0   203     4.7   1010.1    0.00 
 206   13:50   0.81   62.0    70    2.3   180     4.9   1010.1    0.00 
 206   14:00   0.80   62.8    68    1.9   212     4.5   1010.2    0.00 
 206   14:10   0.78   61.7    71    2.6   203     4.5   1010.3    0.00 
 206   14:20   0.76   59.8    76    3.1   241     5.8   1010.3    0.00 
 206   14:30   0.75   59.9    76    2.7   237     5.5   1010.3    0.00 
 206   14:40   0.73   59.2    79    2.8   250     6.2   1010.3    0.00 
 206   14:50   0.71   59.7    77    2.4   244     5.1   1010.4    0.00 
 206   15:00   0.69   60.4    76    2.1   239     5.1   1010.5    0.00 
 206   15:10   0.67   61.7    72    1.9   241     5.8   1010.5    0.00 
 206   15:20   0.65   60.4    75    2.2   238     5.4   1010.4    0.00 
 206   15:30   0.63   60.9    74    1.9   228     4.3   1010.5    0.00 
 206   15:40   0.60   61.2    74    1.6   212     3.7   1010.4    0.00 
 206   15:50   0.58   61.5    73    1.6   228     5.0   1010.5    0.00 
 206   16:00   0.55   61.4    73    1.9   228     4.2   1010.6    0.00 
 206   16:10   0.52   60.7    75    1.9   230     4.2   1010.5    0.00 
 206   16:20   0.49   60.1    76    2.6   219     5.3   1010.4    0.00 
 206   16:30   0.47   60.0    76    2.2   212     4.1   1010.4    0.00 
 206   16:40   0.44   60.4    75    2.1   217     4.1   1010.4    0.00 
 206   16:50   0.41   59.8    76    2.3   209     4.9   1010.3    0.00 
 206   17:00   0.38   60.7    74    2.2   226     4.7   1010.2    0.00 
 206   17:10   0.34   61.2    73    1.1   235     2.7   1010.1    0.00 
 206   17:20   0.31   60.5    74    1.4   270     3.5   1010.0    0.00 
 206   17:30   0.26   60.4    74    1.7   246     3.9   1010.0    0.00 
 206   17:40   0.07   58.2    79    0.8   232     3.3   1010.0    0.00 
 206   17:50   0.06   57.4    81    0.6   258     2.6   1009.7    0.00 
 206   18:00   0.05   57.0    82    1.0   224     2.6   1009.5    0.00 
 206   18:10   0.05   56.2    84    1.1   239     3.7   1009.4    0.00 
 206   18:20   0.04   56.2    85    0.4   248     1.5   1009.3    0.00 
 206   18:30   0.04   56.2    85    0.3   257     1.5   1009.3    0.00 
 206   18:40   0.03   56.1    85    0.6   211     2.1   1009.2    0.00 
 206   18:50   0.03   56.2    85    0.1   285     0.7   1009.2    0.00 
 206   19:00   0.02   56.1    85    0.3   257     1.8   1009.3    0.00 
 206   19:10   0.01   55.8    86    0.1   323     0.7   1009.3    0.00 
 206   19:20   0.01   55.4    86    0.0     0     0.0   1009.3    0.00 
 206   19:30   0.01   55.1    86    0.0     0     0.0   1009.4    0.00 
 206   19:40   0.01   54.8    86    0.0     0     0.0   1009.4    0.00 
 206   19:50   0.01   54.5    87    0.0   299     0.7   1009.4    0.00 
 206   20:00   0.01   54.3    87    0.1   339     0.9   1009.4    0.00 
 206   20:10   0.01   54.2    88    0.0   312     1.3   1009.5    0.00 
 206   20:20   0.01   54.1    88    0.0   307     0.2   1009.5    0.00 
 206   20:30   0.01   54.0    88    0.0     0     0.0   1009.6    0.00 
 206   20:40   0.01   53.7    88    0.1     3     1.4   1009.7    0.00 
 206   20:50   0.01   53.9    89    0.1    36     1.5   1009.7    0.00 
 206   21:00   0.01   53.7    89    0.0     0     0.0   1009.9    0.00 
 206   21:10   0.01   53.5    89    0.0     0     0.0   1009.9    0.00 
 206   21:20   0.01   53.4    89    0.3     5     1.6   1010.0    0.00 
 206   21:30   0.01   53.2    90    0.5    18     1.4   1009.9    0.00 
 206   21:40   0.01   53.2    90    0.1   294     0.6   1009.9    0.00 
 206   21:50   0.01   53.1    90    0.0   336     0.4   1010.1    0.00 
 206   22:00   0.01   53.0    90    0.2   342     1.0   1010.2    0.00 
 206   22:10   0.01   52.7    90    0.0   343     0.4   1010.1    0.00 
 206   22:20   0.01   52.7    90    0.1   355     0.9   1010.2    0.00 
 206   22:30   0.01   52.4    91    0.3     1     2.1   1010.2    0.00 
 206   22:40   0.01   52.5    91    0.2   346     1.4   1010.3    0.00 
 206   22:50   0.01   52.4    91    0.0     0     0.0   1010.3    0.00 
 206   23:00   0.01   52.2    91    0.0     0     0.0   1010.3    0.00 
 206   23:10   0.01   51.9    91    0.0     0     0.0   1010.4    0.00 
 206   23:20   0.01   51.6    91    0.0     0     0.7   1010.5    0.00 
 206   23:30   0.01   51.7    91    0.6    29     2.3   1010.4    0.00 
 206   23:40   0.01   52.0    92    1.2   175     2.9   1010.3    0.00 
 206   23:50   0.01   51.8    92    0.4   357     1.5   1010.3    0.00 
 207    0:00   0.01   51.9    92    0.6   271     1.6   1010.4    0.00 
 207    0:10   0.01   52.2    93    0.3   278     1.0   1010.4    0.00 
 207    0:20   0.01   52.2    93    0.3     6     1.5   1010.3    0.00 
 207    0:30   0.01   51.9    93    0.7    11     2.1   1010.3    0.00 
 207    0:40   0.01   51.3    93    1.0    33     3.3   1010.3    0.00 

Return to Big Creek Reserve Entrance graphs page.


Western Regional Climate Center,wrcc@dri.edu